Time;durP1;ratioP1;P1;durP2;ratioP2;P2;SDS_P1;SDS_P2;PMS_P1;PMS_P2;Temp;Humidity;BMP_temperature;BMP_pressure;BME280_temperature;BME280_humidity;BME280_pressure;Samples;Min_cycle;Max_cycle;Signal;HPM_P1;HPM_P2
2022/03/12 00:00:47;;;;;;;8.88;4.65;;;7.00;56.20;;;;;;5065682;28;20051;-76
2022/03/12 00:03:16;;;;;;;10.18;4.68;;;7.00;57.00;;;;;;5062541;28;20141;-77
2022/03/12 00:05:53;;;;;;;8.40;4.63;;;6.90;57.40;;;;;;5061464;28;20044;-76
2022/03/12 00:08:42;;;;;;;8.30;4.72;;;7.00;56.50;;;;;;5063778;28;20072;-76
2022/03/12 00:11:27;;;;;;;6.90;4.00;;;7.00;57.20;;;;;;5065432;28;20072;-76
2022/03/12 00:13:54;;;;;;;9.35;4.18;;;7.00;57.00;;;;;;5064369;28;20693;-76
2022/03/12 00:16:23;;;;;;;6.22;3.78;;;7.00;56.70;;;;;;5066452;28;20533;-76
2022/03/12 00:18:52;;;;;;;6.97;3.97;;;7.00;56.30;;;;;;5065703;28;20047;-76
2022/03/12 00:21:19;;;;;;;9.40;4.28;;;7.00;56.30;;;;;;5066469;28;20044;-76
2022/03/12 00:23:47;;;;;;;8.35;4.18;;;7.00;56.20;;;;;;5060168;28;20051;-76
2022/03/12 00:26:16;;;;;;;6.78;4.47;;;7.10;56.30;;;;;;5063813;28;20876;-76
2022/03/12 00:28:43;;;;;;;8.65;4.28;;;7.00;56.00;;;;;;5096206;28;20087;-76
2022/03/12 00:31:09;;;;;;;6.68;4.90;;;7.00;56.40;;;;;;5066466;28;20067;-76
2022/03/12 00:33:35;;;;;;;6.50;4.57;;;7.00;56.00;;;;;;5060486;28;20123;-76
2022/03/12 00:36:02;;;;;;;5.68;4.30;;;7.00;55.90;;;;;;5061847;28;20131;-76
2022/03/12 00:38:28;;;;;;;4.82;4.00;;;7.00;56.50;;;;;;5064980;28;21529;-76
2022/03/12 00:40:54;;;;;;;10.43;4.60;;;7.00;56.90;;;;;;5064652;28;20067;-76
2022/03/12 00:43:19;;;;;;;6.32;4.30;;;7.00;56.80;;;;;;5068927;28;20438;-76
2022/03/12 00:45:47;;;;;;;4.85;4.07;;;7.10;55.80;;;;;;5067732;28;20383;-76
2022/03/12 00:48:14;;;;;;;12.05;4.43;;;7.10;56.80;;;;;;5066816;28;20044;-77
2022/03/12 00:50:39;;;;;;;6.53;4.68;;;7.00;56.90;;;;;;5064198;28;20041;-76
2022/03/12 00:53:05;;;;;;;5.93;4.53;;;7.00;56.50;;;;;;5066848;28;20074;-76
2022/03/12 00:55:31;;;;;;;6.45;4.55;;;7.00;56.30;;;;;;5064318;28;20032;-76
2022/03/12 00:57:57;;;;;;;12.68;4.55;;;7.10;57.00;;;;;;5064671;28;20121;-76
2022/03/12 01:00:25;;;;;;;10.95;4.38;;;7.10;56.50;;;;;;5065216;28;20491;-76
2022/03/12 01:02:51;;;;;;;7.72;3.90;;;7.00;57.40;;;;;;5066642;28;20036;-76
2022/03/12 01:05:21;;;;;;;7.78;4.03;;;7.00;57.40;;;;;;5064421;28;20063;-76
2022/03/12 01:07:48;;;;;;;8.88;4.45;;;7.00;57.10;;;;;;5066063;28;20079;-76
2022/03/12 01:10:14;;;;;;;6.72;4.45;;;7.00;57.10;;;;;;5064469;28;20132;-76
2022/03/12 01:12:40;;;;;;;7.20;4.25;;;7.00;56.50;;;;;;5069521;28;20040;-76
2022/03/12 01:15:06;;;;;;;6.75;4.15;;;7.00;57.40;;;;;;5079375;28;20044;-76
2022/03/12 01:17:33;;;;;;;6.68;4.40;;;7.00;57.60;;;;;;5065666;28;20577;-76
2022/03/12 01:20:00;;;;;;;9.23;4.70;;;7.00;57.20;;;;;;5067628;28;20115;-76
2022/03/12 01:22:29;;;;;;;7.07;4.22;;;7.00;57.50;;;;;;5066152;28;20036;-77
2022/03/12 01:24:55;;;;;;;11.77;4.90;;;6.90;57.50;;;;;;5069681;28;20078;-76
2022/03/12 01:27:20;;;;;;;7.55;4.40;;;7.00;58.00;;;;;;5065438;28;20040;-76
2022/03/12 01:29:47;;;;;;;5.50;3.83;;;6.90;58.80;;;;;;5070356;28;20507;-76
2022/03/12 01:32:13;;;;;;;10.48;4.90;;;6.90;58.20;;;;;;5070628;28;20105;-77
2022/03/12 01:34:38;;;;;;;6.70;4.50;;;6.90;57.60;;;;;;5073302;28;20040;-76
2022/03/12 01:37:04;;;;;;;8.05;4.05;;;6.90;58.70;;;;;;5072113;28;20036;-77
2022/03/12 01:39:30;;;;;;;7.10;4.55;;;7.00;57.30;;;;;;5070531;28;20062;-76
2022/03/12 01:41:57;;;;;;;14.27;5.20;;;6.90;58.20;;;;;;5070120;28;20487;-76
2022/03/12 01:44:23;;;;;;;12.73;4.80;;;7.00;57.10;;;;;;5070283;28;20603;-76
2022/03/12 01:46:49;;;;;;;6.22;4.38;;;6.90;58.40;;;;;;5067508;28;20113;-76
2022/03/12 01:49:18;;;;;;;9.60;4.63;;;6.90;58.10;;;;;;5064931;28;20601;-76
2022/03/12 01:51:45;;;;;;;5.78;4.22;;;6.90;57.80;;;;;;5066499;28;20083;-76
2022/03/12 01:54:16;;;;;;;6.40;4.00;;;7.00;58.30;;;;;;5067289;28;20029;-76
2022/03/12 01:56:41;;;;;;;8.15;4.05;;;6.90;58.10;;;;;;5066739;28;20043;-76
2022/03/12 01:59:07;;;;;;;11.07;4.65;;;6.90;57.50;;;;;;5066569;28;20052;-76
2022/03/12 02:01:33;;;;;;;6.20;4.65;;;6.90;58.00;;;;;;5064212;28;20052;-76
2022/03/12 02:04:00;;;;;;;7.00;4.85;;;6.90;58.90;;;;;;5067236;28;20075;-76
2022/03/12 02:06:26;;;;;;;7.18;4.45;;;6.90;58.60;;;;;;5073822;28;20044;-76
2022/03/12 02:08:58;;;;;;;9.20;4.43;;;6.90;58.30;;;;;;5063285;28;20048;-76
2022/03/12 02:11:28;;;;;;;7.43;4.60;;;6.90;57.90;;;;;;5067619;28;20058;-76
2022/03/12 02:13:59;;;;;;;7.63;4.20;;;6.90;59.30;;;;;;5067591;28;20428;-76
2022/03/12 02:16:26;;;;;;;8.93;3.88;;;6.90;58.00;;;;;;5100607;28;20048;-76
2022/03/12 02:18:52;;;;;;;8.00;4.25;;;6.90;58.60;;;;;;5065710;28;20097;-76
2022/03/12 02:21:30;;;;;;;6.03;4.28;;;6.80;58.50;;;;;;5066539;28;20759;-76
2022/03/12 02:23:56;;;;;;;9.27;4.63;;;6.80;59.10;;;;;;5067036;28;20048;-76
2022/03/12 02:26:21;;;;;;;7.05;4.35;;;6.80;59.50;;;;;;5069726;28;20091;-77
2022/03/12 02:28:47;;;;;;;6.43;4.18;;;6.90;58.50;;;;;;5066325;28;20036;-77
2022/03/12 02:31:14;;;;;;;10.23;4.28;;;6.90;58.60;;;;;;5063514;28;20126;-76
2022/03/12 02:33:41;;;;;;;6.63;4.35;;;6.90;59.20;;;;;;5064983;28;20517;-76
2022/03/12 02:36:07;;;;;;;6.32;4.22;;;6.90;59.70;;;;;;5065792;28;20044;-76
2022/03/12 02:38:35;;;;;;;9.73;4.95;;;6.90;59.50;;;;;;5066914;28;20047;-76
2022/03/12 02:41:10;;;;;;;6.30;4.38;;;6.90;58.20;;;;;;5068808;28;20048;-77
2022/03/12 02:43:45;;;;;;;8.13;4.97;;;6.90;59.40;;;;;;5067029;28;20701;-76
2022/03/12 02:46:13;;;;;;;8.73;4.90;;;6.90;58.70;;;;;;5067109;28;20037;-76
2022/03/12 02:48:39;;;;;;;8.82;4.40;;;6.90;59.60;;;;;;5067194;28;20044;-76
2022/03/12 02:51:07;;;;;;;8.65;5.07;;;6.80;59.00;;;;;;5063729;28;20036;-76
2022/03/12 02:53:34;;;;;;;5.45;3.90;;;6.80;59.40;;;;;;5065102;28;20123;-76
2022/03/12 02:55:59;;;;;;;7.90;4.85;;;6.80;58.90;;;;;;5098162;28;20080;-76
2022/03/12 02:58:26;;;;;;;8.90;4.38;;;6.90;58.70;;;;;;5065553;28;20521;-76
2022/03/12 03:00:53;;;;;;;8.95;5.05;;;6.80;58.70;;;;;;5066301;28;20049;-77
2022/03/12 03:03:19;;;;;;;8.70;5.20;;;6.80;58.80;;;;;;5067923;28;20032;-76
2022/03/12 03:05:47;;;;;;;7.35;4.38;;;6.80;59.10;;;;;;5079954;28;20051;-76
2022/03/12 03:08:18;;;;;;;8.50;4.45;;;6.80;59.60;;;;;;5064822;28;20044;-76
2022/03/12 03:10:46;;;;;;;7.88;4.65;;;6.80;60.30;;;;;;5066552;28;20111;-76
2022/03/12 03:13:18;;;;;;;5.53;4.35;;;6.80;60.00;;;;;;5099250;28;20907;-76
2022/03/12 03:15:54;;;;;;;7.68;4.78;;;6.70;60.00;;;;;;5064586;28;20049;-76
2022/03/12 03:18:24;;;;;;;6.90;5.00;;;6.70;60.30;;;;;;5068004;28;20553;-76
2022/03/12 03:20:51;;;;;;;5.82;4.25;;;6.70;59.80;;;;;;5065094;28;20544;-76
2022/03/12 03:23:18;;;;;;;8.40;4.85;;;6.60;60.40;;;;;;5083721;28;20044;-76
2022/03/12 03:25:45;;;;;;;6.63;4.00;;;6.60;60.50;;;;;;5067429;28;20461;-76
2022/03/12 03:28:10;;;;;;;7.47;4.70;;;6.70;60.70;;;;;;5068163;28;20037;-76
2022/03/12 03:30:38;;;;;;;9.20;4.32;;;6.70;60.10;;;;;;5064699;28;20098;-77
2022/03/12 03:33:07;;;;;;;10.25;5.15;;;6.70;60.00;;;;;;5070507;28;20070;-76
2022/03/12 03:35:33;;;;;;;7.13;4.45;;;6.60;60.10;;;;;;5068211;28;20041;-76
2022/03/12 03:37:59;;;;;;;6.55;5.20;;;6.70;60.50;;;;;;5096566;28;20394;-76
2022/03/12 03:40:27;;;;;;;7.65;4.75;;;6.60;60.30;;;;;;5065147;28;20090;-75
2022/03/12 03:42:53;;;;;;;7.05;4.93;;;6.60;60.10;;;;;;5066520;28;20160;-76
2022/03/12 03:45:24;;;;;;;8.05;4.75;;;6.60;60.80;;;;;;5066967;28;20591;-76
2022/03/12 03:47:51;;;;;;;6.63;5.18;;;6.50;61.30;;;;;;5066677;28;20410;-76
2022/03/12 03:50:25;;;;;;;7.05;4.82;;;6.50;61.70;;;;;;5065084;28;20056;-76
2022/03/12 03:52:56;;;;;;;11.93;5.40;;;6.40;61.10;;;;;;5066136;28;20040;-76
2022/03/12 03:55:25;;;;;;;9.68;5.50;;;6.40;61.00;;;;;;5065765;28;20126;-76
2022/03/12 03:57:56;;;;;;;8.77;4.72;;;6.40;61.20;;;;;;5069224;28;20048;-76
2022/03/12 04:00:22;;;;;;;7.57;5.15;;;6.30;61.30;;;;;;5065899;28;20047;-76
2022/03/12 04:02:49;;;;;;;8.85;4.35;;;6.40;60.90;;;;;;5068252;28;20029;-76
2022/03/12 04:05:14;;;;;;;7.65;4.70;;;6.30;60.80;;;;;;5101428;28;20150;-76
2022/03/12 04:07:41;;;;;;;8.90;5.18;;;6.30;61.00;;;;;;5072310;28;20128;-76
2022/03/12 04:10:10;;;;;;;11.45;6.00;;;6.30;61.40;;;;;;5062136;28;20033;-76
2022/03/12 04:12:35;;;;;;;7.43;4.97;;;6.30;62.20;;;;;;5062337;28;20098;-76
2022/03/12 04:15:01;;;;;;;8.15;4.35;;;6.30;61.90;;;;;;5064389;28;20036;-76
2022/03/12 04:17:28;;;;;;;6.80;5.07;;;6.20;61.70;;;;;;5066552;28;20053;-76
2022/03/12 04:19:54;;;;;;;7.10;5.18;;;6.20;61.70;;;;;;5093802;28;20086;-76
2022/03/12 04:22:20;;;;;;;5.65;4.60;;;6.20;62.00;;;;;;5064609;28;20048;-76
2022/03/12 04:24:45;;;;;;;7.15;5.20;;;6.20;62.10;;;;;;5064258;28;20048;-76
2022/03/12 04:27:11;;;;;;;6.10;5.05;;;6.10;62.90;;;;;;5064080;28;20380;-76
2022/03/12 04:29:37;;;;;;;6.97;4.60;;;6.20;62.40;;;;;;5063014;28;20372;-76
2022/03/12 04:32:07;;;;;;;8.25;4.82;;;6.20;63.30;;;;;;5068004;28;20119;-76
2022/03/12 04:34:34;;;;;;;9.88;4.88;;;6.10;63.00;;;;;;5065642;28;20069;-77
2022/03/12 04:37:00;;;;;;;9.60;4.88;;;6.20;63.10;;;;;;5063069;28;20075;-76
2022/03/12 04:39:25;;;;;;;10.82;5.13;;;6.10;63.00;;;;;;5068350;28;20127;-76
2022/03/12 04:41:51;;;;;;;8.48;5.38;;;6.10;63.40;;;;;;5062076;28;20052;-76
2022/03/12 04:44:17;;;;;;;10.68;6.00;;;6.10;64.00;;;;;;5059464;28;20029;-76
2022/03/12 04:46:43;;;;;;;8.00;5.80;;;6.10;63.90;;;;;;5076010;28;20111;-76
2022/03/12 04:49:08;;;;;;;7.63;4.68;;;6.10;64.00;;;;;;5057569;28;20067;-76
2022/03/12 04:51:34;;;;;;;8.52;5.18;;;6.00;64.00;;;;;;5058693;28;20075;-76
2022/03/12 04:54:00;;;;;;;8.88;5.47;;;6.00;64.00;;;;;;5090259;28;20041;-76
2022/03/12 04:56:27;;;;;;;9.70;5.45;;;6.00;65.00;;;;;;5060211;28;20477;-76
2022/03/12 04:58:54;;;;;;;6.60;4.90;;;6.00;64.60;;;;;;5058450;28;20076;-76
2022/03/12 05:01:24;;;;;;;7.72;4.63;;;6.10;64.60;;;;;;5058773;28;20075;-76
2022/03/12 05:03:50;;;;;;;8.77;5.55;;;6.00;64.60;;;;;;5090505;28;20040;-76
2022/03/12 05:06:18;;;;;;;7.47;5.07;;;6.10;64.80;;;;;;5061422;28;20510;-76
2022/03/12 05:08:44;;;;;;;10.38;5.50;;;6.00;64.90;;;;;;5056477;28;20129;-76
2022/03/12 05:11:10;;;;;;;8.25;5.25;;;6.10;64.80;;;;;;5023435;28;1023389;-76
2022/03/12 05:13:36;;;;;;;9.13;5.00;;;6.00;64.50;;;;;;5058616;28;20068;-76
2022/03/12 05:16:06;;;;;;;8.23;5.72;;;6.00;64.60;;;;;;5058972;28;20073;-77
2022/03/12 05:18:33;;;;;;;6.05;4.72;;;6.00;65.50;;;;;;5058133;28;20048;-76
2022/03/12 05:20:59;;;;;;;6.45;4.97;;;6.10;66.00;;;;;;5057761;28;20437;-76
2022/03/12 05:23:25;;;;;;;13.95;5.22;;;5.90;66.90;;;;;;5059634;28;20068;-76
2022/03/12 05:25:52;;;;;;;9.32;4.82;;;6.00;65.90;;;;;;5060576;28;20068;-76
2022/03/12 05:28:29;;;;;;;10.88;5.47;;;6.00;66.60;;;;;;5060887;28;20054;-76
2022/03/12 05:30:58;;;;;;;6.85;5.82;;;6.00;67.10;;;;;;5060935;28;20040;-76
2022/03/12 05:33:24;;;;;;;9.00;5.07;;;6.00;67.50;;;;;;5078236;28;20180;-76
2022/03/12 05:35:54;;;;;;;9.25;5.85;;;6.00;67.70;;;;;;5057919;28;20558;-77
2022/03/12 05:38:25;;;;;;;7.25;5.72;;;5.90;67.10;;;;;;5060295;28;20045;-77
2022/03/12 05:40:51;;;;;;;8.20;4.95;;;5.90;68.10;;;;;;5058467;28;20064;-77
2022/03/12 05:43:17;;;;;;;8.05;5.57;;;5.90;67.50;;;;;;5041746;28;20141;-76
2022/03/12 05:45:45;;;;;;;7.88;5.38;;;5.90;68.20;;;;;;5056254;28;20044;-77
2022/03/12 05:48:12;;;;;;;7.60;4.78;;;5.90;66.80;;;;;;5055995;28;20045;-76
2022/03/12 05:50:39;;;;;;;8.98;4.78;;;5.80;68.10;;;;;;5098320;28;20041;-76
2022/03/12 05:53:09;;;;;;;11.98;6.97;;;5.80;67.20;;;;;;5068383;28;20852;-76
2022/03/12 05:55:39;;;;;;;8.20;6.43;;;5.80;66.70;;;;;;5067364;28;20061;-77
2022/03/12 05:58:10;;;;;;;10.73;5.28;;;5.90;66.90;;;;;;5052270;28;20072;-76
2022/03/12 06:00:39;;;;;;;11.07;5.10;;;5.90;67.50;;;;;;5069189;28;20195;-76
2022/03/12 06:03:05;;;;;;;11.23;5.57;;;5.80;66.60;;;;;;5071140;28;20062;-77
2022/03/12 06:05:31;;;;;;;10.30;4.97;;;5.80;66.20;;;;;;5065638;28;20040;-76
2022/03/12 06:07:59;;;;;;;6.63;4.95;;;5.70;66.30;;;;;;5070890;28;20048;-76
2022/03/12 06:10:31;;;;;;;7.88;4.78;;;5.80;66.50;;;;;;5058455;28;20620;-77
2022/03/12 06:12:58;;;;;;;10.00;5.07;;;5.70;66.00;;;;;;5075766;28;20051;-76
2022/03/12 06:15:26;;;;;;;6.43;4.63;;;5.80;66.90;;;;;;5068337;28;20048;-76
2022/03/12 06:17:53;;;;;;;7.80;4.93;;;5.70;66.50;;;;;;5072250;28;20102;-77
2022/03/12 06:20:21;;;;;;;6.38;4.82;;;5.70;66.20;;;;;;5069201;28;20040;-76
2022/03/12 06:22:48;;;;;;;7.43;5.30;;;5.70;66.30;;;;;;5070461;28;20044;-76
2022/03/12 06:25:15;;;;;;;8.57;4.95;;;5.70;66.30;;;;;;5070707;28;20078;-76
2022/03/12 06:27:42;;;;;;;6.78;4.85;;;5.70;66.70;;;;;;5071674;28;20409;-76
2022/03/12 06:30:12;;;;;;;11.43;5.03;;;5.70;66.60;;;;;;5067509;28;20048;-76
2022/03/12 06:32:42;;;;;;;7.45;5.07;;;5.70;67.10;;;;;;5069158;28;20045;-76
2022/03/12 06:35:09;;;;;;;8.10;5.75;;;5.70;68.20;;;;;;5080752;28;20364;-77
2022/03/12 06:37:35;;;;;;;13.95;5.45;;;5.60;68.00;;;;;;5073629;28;20054;-76
2022/03/12 06:40:00;;;;;;;13.38;5.38;;;5.70;68.10;;;;;;5071635;28;20115;-77
2022/03/12 06:42:29;;;;;;;8.45;5.25;;;5.70;68.00;;;;;;5092003;28;20047;-76
2022/03/12 06:44:56;;;;;;;9.05;5.65;;;5.70;68.40;;;;;;5068274;28;20036;-76
2022/03/12 06:47:27;;;;;;;7.72;5.38;;;5.70;68.50;;;;;;5067473;28;20037;-77
2022/03/12 06:49:54;;;;;;;7.28;5.57;;;5.70;67.30;;;;;;5098019;28;20044;-71
2022/03/12 06:52:20;;;;;;;11.30;5.15;;;5.70;69.00;;;;;;5069971;28;20045;-72
2022/03/12 06:54:46;;;;;;;7.80;5.15;;;5.80;69.20;;;;;;5068412;28;20737;-72
2022/03/12 06:57:11;;;;;;;9.23;5.03;;;5.90;69.30;;;;;;5071709;28;20455;-71
2022/03/12 06:59:37;;;;;;;8.30;4.88;;;5.90;69.20;;;;;;5068827;28;20072;-71
2022/03/12 07:02:03;;;;;;;9.43;5.00;;;6.00;68.40;;;;;;5076808;28;20457;-71
2022/03/12 07:04:29;;;;;;;8.43;5.10;;;6.00;68.50;;;;;;5069781;28;20048;-72
2022/03/12 07:06:54;;;;;;;7.72;4.95;;;6.10;68.40;;;;;;5064407;28;20040;-72
2022/03/12 07:09:21;;;;;;;8.82;5.40;;;6.10;67.70;;;;;;5068160;28;20119;-72
2022/03/12 07:11:47;;;;;;;13.27;5.10;;;6.20;67.90;;;;;;5067418;28;20060;-70
2022/03/12 07:14:12;;;;;;;6.40;5.03;;;6.20;67.80;;;;;;5066379;28;20850;-68
2022/03/12 07:16:38;;;;;;;8.75;5.90;;;6.20;68.00;;;;;;5069036;28;20040;-68
2022/03/12 07:19:04;;;;;;;7.85;5.47;;;6.40;68.90;;;;;;5068698;28;20477;-68
2022/03/12 07:21:30;;;;;;;8.65;5.60;;;7.20;68.00;;;;;;5067258;28;20035;-68
2022/03/12 07:23:56;;;;;;;7.32;5.25;;;8.20;66.50;;;;;;5066592;28;20440;-69
2022/03/12 07:26:22;;;;;;;7.45;5.03;;;9.00;64.30;;;;;;5067291;28;20119;-69
2022/03/12 07:28:49;;;;;;;11.48;5.50;;;9.50;61.50;;;;;;5065778;28;20545;-69
2022/03/12 07:31:16;;;;;;;6.80;5.45;;;9.70;59.90;;;;;;5065763;28;20531;-69
2022/03/12 07:33:42;;;;;;;8.88;5.40;;;9.70;60.20;;;;;;5068948;28;20040;-69
2022/03/12 07:36:08;;;;;;;10.07;5.25;;;9.90;59.50;;;;;;5067936;28;20036;-69
2022/03/12 07:38:34;;;;;;;13.23;5.82;;;9.80;59.60;;;;;;5071097;28;20048;-69
2022/03/12 07:41:00;;;;;;;8.93;5.57;;;9.60;59.70;;;;;;5068893;28;20054;-69
2022/03/12 07:43:26;;;;;;;9.15;4.40;;;9.30;59.50;;;;;;5067551;28;20086;-69
2022/03/12 07:45:52;;;;;;;10.57;5.60;;;9.20;61.00;;;;;;5065037;28;20032;-69
2022/03/12 07:48:18;;;;;;;9.93;5.78;;;9.10;60.50;;;;;;5064031;28;20041;-69
2022/03/12 07:50:44;;;;;;;9.95;5.45;;;9.00;61.70;;;;;;5065858;28;20063;-69
2022/03/12 07:53:13;;;;;;;10.18;6.13;;;8.90;61.60;;;;;;5067113;28;20597;-67
2022/03/12 07:55:40;;;;;;;8.63;4.80;;;8.90;62.40;;;;;;5063375;28;20040;-67
2022/03/12 07:58:06;;;;;;;12.18;6.50;;;8.80;62.80;;;;;;5066440;28;20036;-67
2022/03/12 08:00:32;;;;;;;9.60;6.35;;;8.80;63.00;;;;;;5067016;28;20033;-66
2022/03/12 08:02:58;;;;;;;12.25;5.15;;;8.80;63.00;;;;;;5067611;28;20038;-66
2022/03/12 08:05:25;;;;;;;7.75;5.00;;;8.80;63.40;;;;;;5066115;28;20082;-66
2022/03/12 08:07:54;;;;;;;18.13;6.50;;;8.80;64.30;;;;;;5068808;28;20375;-67
2022/03/12 08:10:21;;;;;;;9.70;5.82;;;8.80;64.20;;;;;;5066544;28;21587;-67
2022/03/12 08:12:50;;;;;;;9.23;5.45;;;8.80;63.90;;;;;;5064085;28;20040;-67
2022/03/12 08:15:17;;;;;;;10.77;7.10;;;8.80;64.00;;;;;;5065479;28;20055;-67
2022/03/12 08:17:44;;;;;;;7.10;5.57;;;8.80;64.60;;;;;;5067063;28;20078;-67
2022/03/12 08:20:11;;;;;;;11.05;6.10;;;8.90;63.90;;;;;;5063950;28;20032;-67
2022/03/12 08:22:44;;;;;;;9.77;6.15;;;8.90;64.20;;;;;;5068339;28;20410;-67
2022/03/12 08:25:12;;;;;;;8.98;6.10;;;8.90;63.40;;;;;;5065608;28;20036;-67
2022/03/12 08:27:39;;;;;;;7.40;6.43;;;9.00;63.60;;;;;;5067924;28;20048;-69
2022/03/12 08:30:09;;;;;;;10.10;6.30;;;9.00;64.00;;;;;;5066237;28;20143;-68
2022/03/12 08:32:36;;;;;;;8.85;6.57;;;9.20;64.90;;;;;;5065843;28;20063;-68
2022/03/12 08:35:05;;;;;;;8.02;6.18;;;9.30;63.70;;;;;;5065414;28;20101;-68
2022/03/12 08:37:32;;;;;;;11.48;6.88;;;9.40;65.00;;;;;;5077363;28;20044;-68
2022/03/12 08:39:58;;;;;;;14.32;6.93;;;9.60;63.50;;;;;;5070859;28;20048;-68
2022/03/12 08:42:24;;;;;;;10.55;6.60;;;9.80;65.10;;;;;;5065887;28;20063;-67
2022/03/12 08:44:51;;;;;;;9.50;6.43;;;9.90;65.20;;;;;;5067849;28;20071;-68
2022/03/12 08:47:16;;;;;;;13.05;6.78;;;10.00;63.70;;;;;;5066597;28;20040;-68
2022/03/12 08:49:42;;;;;;;14.10;6.72;;;10.10;63.30;;;;;;5068192;28;20123;-68
2022/03/12 08:52:08;;;;;;;9.88;7.03;;;10.10;63.90;;;;;;5083478;28;20370;-68
2022/03/12 08:54:34;;;;;;;10.00;6.38;;;10.20;63.90;;;;;;5068587;28;20036;-67
2022/03/12 08:56:59;;;;;;;10.50;7.13;;;10.30;63.80;;;;;;5066362;28;20387;-67
2022/03/12 08:59:25;;;;;;;10.35;7.43;;;10.40;64.20;;;;;;5066515;28;20074;-71
2022/03/12 09:01:51;;;;;;;10.80;6.63;;;10.40;64.70;;;;;;5069748;28;20028;-68
2022/03/12 09:04:19;;;;;;;14.05;7.30;;;10.60;64.30;;;;;;5069120;28;20033;-67
2022/03/12 09:06:45;;;;;;;9.40;6.93;;;10.70;64.90;;;;;;5072174;28;20185;-67
2022/03/12 09:09:11;;;;;;;11.20;7.30;;;10.90;64.90;;;;;;5066142;28;20052;-67
2022/03/12 09:11:37;;;;;;;11.10;8.48;;;11.00;64.70;;;;;;5066052;28;20052;-68
2022/03/12 09:14:03;;;;;;;12.77;7.45;;;11.20;65.50;;;;;;5071302;28;20118;-68
2022/03/12 09:16:30;;;;;;;12.02;7.40;;;11.30;64.90;;;;;;5065548;28;20041;-68
2022/03/12 09:18:55;;;;;;;14.35;7.35;;;11.50;65.40;;;;;;5071962;28;20089;-67
2022/03/12 09:21:21;;;;;;;9.15;7.05;;;11.50;64.90;;;;;;5071976;28;20135;-68
2022/03/12 09:23:47;;;;;;;10.88;7.00;;;11.60;65.50;;;;;;5081297;28;20046;-67
2022/03/12 09:26:14;;;;;;;10.65;6.82;;;11.80;66.00;;;;;;5066132;28;20064;-68
2022/03/12 09:28:40;;;;;;;12.02;6.95;;;11.90;65.30;;;;;;5065266;28;20041;-68
2022/03/12 09:31:06;;;;;;;9.73;6.80;;;12.00;65.70;;;;;;5077368;28;20037;-67
2022/03/12 09:33:32;;;;;;;10.38;6.88;;;12.00;65.10;;;;;;5100046;28;20047;-70
2022/03/12 09:35:58;;;;;;;11.38;7.43;;;11.90;65.20;;;;;;5070267;28;20059;-69
2022/03/12 09:38:24;;;;;;;10.85;7.30;;;11.90;65.30;;;;;;5069288;28;20093;-69
2022/03/12 09:40:50;;;;;;;11.10;7.40;;;12.00;66.00;;;;;;5070134;28;20036;-70
2022/03/12 09:43:16;;;;;;;8.85;7.22;;;12.10;65.90;;;;;;5071254;28;20447;-69
2022/03/12 09:45:41;;;;;;;10.32;7.60;;;12.40;67.10;;;;;;5070536;28;20036;-69
2022/03/12 09:48:08;;;;;;;12.48;7.40;;;12.10;67.30;;;;;;5071802;28;20040;-69
2022/03/12 09:50:34;;;;;;;10.27;7.60;;;12.20;67.90;;;;;;5069959;28;20048;-70
2022/03/12 09:53:00;;;;;;;13.93;7.15;;;12.40;68.20;;;;;;5070859;28;20051;-70
2022/03/12 09:55:26;;;;;;;9.10;7.28;;;12.50;67.20;;;;;;5070936;28;20041;-70
2022/03/12 09:57:52;;;;;;;12.93;8.07;;;12.60;67.10;;;;;;5076601;28;20051;-70
2022/03/12 10:00:19;;;;;;;10.13;7.32;;;12.60;66.70;;;;;;5078339;28;20036;-70
2022/03/12 10:02:44;;;;;;;12.15;7.72;;;12.60;67.00;;;;;;5069240;28;20045;-69
2022/03/12 10:05:12;;;;;;;10.00;7.47;;;12.60;66.80;;;;;;5069254;28;20047;-70
2022/03/12 10:07:39;;;;;;;10.45;6.43;;;12.60;67.60;;;;;;5099029;28;20048;-70
2022/03/12 10:10:05;;;;;;;9.80;6.75;;;12.70;70.20;;;;;;5068524;28;20044;-73
2022/03/12 10:12:31;;;;;;;11.40;7.10;;;12.70;69.90;;;;;;5071748;28;20040;-70
2022/03/12 10:14:56;;;;;;;7.97;7.10;;;12.70;69.40;;;;;;5069110;28;20170;-68
2022/03/12 10:17:22;;;;;;;9.45;6.32;;;12.80;70.90;;;;;;5068955;28;20497;-72
2022/03/12 10:19:48;;;;;;;7.90;5.75;;;12.90;72.50;;;;;;5070031;28;20097;-71
2022/03/12 10:22:14;;;;;;;10.45;6.05;;;12.90;73.80;;;;;;5068006;28;20052;-70
2022/03/12 10:24:40;;;;;;;10.40;6.28;;;12.90;73.90;;;;;;5070187;28;20033;-71
2022/03/12 10:27:07;;;;;;;11.75;6.22;;;13.00;76.00;;;;;;5069623;28;20041;-72
2022/03/12 10:29:34;;;;;;;8.52;5.82;;;13.00;76.10;;;;;;5068754;28;20040;-70
2022/03/12 10:32:22;;;;;;;8.55;5.95;;;13.20;76.10;;;;;;5068234;28;20036;-69
2022/03/12 10:34:56;;;;;;;8.00;5.85;;;13.20;75.90;;;;;;5068375;28;20060;-70
2022/03/12 10:37:32;;;;;;;7.30;5.85;;;13.30;75.00;;;;;;5075959;28;20124;-70
2022/03/12 10:40:18;;;;;;;7.18;5.95;;;13.40;75.20;;;;;;5067263;28;20036;-70
2022/03/12 10:42:46;;;;;;;8.40;5.50;;;13.50;75.60;;;;;;5070088;28;20063;-70
2022/03/12 10:45:16;;;;;;;8.68;5.30;;;13.50;75.20;;;;;;5068602;28;20079;-69
2022/03/12 10:47:47;;;;;;;6.88;5.10;;;13.50;75.50;;;;;;5100450;28;20490;-66
2022/03/12 10:50:19;;;;;;;8.30;6.00;;;13.50;74.70;;;;;;5099563;28;20075;-67
2022/03/12 10:52:50;;;;;;;10.30;5.80;;;13.50;75.40;;;;;;5066765;28;20055;-66
2022/03/12 10:55:38;;;;;;;6.90;5.35;;;13.40;75.10;;;;;;5070088;28;20137;-67
2022/03/12 10:58:25;;;;;;;10.35;5.88;;;13.50;75.30;;;;;;5046780;28;20044;-66
2022/03/12 11:00:52;;;;;;;23.15;7.53;;;13.60;75.40;;;;;;5068041;28;20037;-66
2022/03/12 11:03:27;;;;;;;6.07;5.20;;;13.70;76.10;;;;;;5066947;28;20055;-66
2022/03/12 11:05:55;;;;;;;31.88;6.10;;;13.80;75.30;;;;;;5066921;28;20446;-67
2022/03/12 11:08:29;;;;;;;15.40;6.28;;;13.90;74.90;;;;;;5099423;28;20060;-67
2022/03/12 11:11:15;;;;;;;15.27;5.85;;;13.90;75.30;;;;;;5067461;28;20048;-68
2022/03/12 11:13:50;;;;;;;19.02;5.78;;;13.80;74.40;;;;;;5068483;28;20054;-67
2022/03/12 11:16:24;;;;;;;9.80;5.38;;;13.90;75.40;;;;;;5068370;28;20098;-67
2022/03/12 11:18:52;;;;;;;6.85;5.28;;;13.90;75.90;;;;;;5067632;28;20051;-67
2022/03/12 11:21:37;;;;;;;11.13;5.97;;;14.00;74.80;;;;;;5069127;28;20044;-67
2022/03/12 11:24:29;;;;;;;12.63;5.93;;;13.90;74.50;;;;;;5067111;28;20037;-67
2022/03/12 11:26:59;;;;;;;11.55;5.05;;;14.00;75.60;;;;;;5067147;28;20040;-69
2022/03/12 11:29:27;;;;;;;18.90;5.20;;;14.20;75.30;;;;;;5068947;28;20044;-66
2022/03/12 11:31:57;;;;;;;12.13;5.78;;;14.30;75.30;;;;;;5079930;28;20045;-65
2022/03/12 11:34:32;;;;;;;7.70;5.65;;;14.40;74.40;;;;;;5068469;28;20060;-66
2022/03/12 11:36:59;;;;;;;8.45;5.35;;;14.50;74.80;;;;;;5065094;28;20049;-66
2022/03/12 11:39:32;;;;;;;10.30;6.07;;;14.40;73.10;;;;;;5065373;28;20098;-66
2022/03/12 11:42:03;;;;;;;9.93;5.25;;;14.20;73.70;;;;;;5066686;28;20553;-66
2022/03/12 11:44:30;;;;;;;7.22;5.63;;;14.10;74.60;;;;;;5069943;28;20036;-67
2022/03/12 11:46:56;;;;;;;10.05;5.43;;;14.10;74.70;;;;;;5068499;28;20435;-67
2022/03/12 11:49:23;;;;;;;6.43;4.80;;;14.20;74.60;;;;;;5069080;28;20044;-67
2022/03/12 11:51:50;;;;;;;6.15;5.03;;;14.40;73.80;;;;;;5069699;28;20036;-67
2022/03/12 11:54:15;;;;;;;8.50;5.13;;;14.60;73.90;;;;;;5067897;28;20051;-67
2022/03/12 11:56:41;;;;;;;5.78;5.13;;;14.70;72.40;;;;;;5064872;28;20040;-67
2022/03/12 11:59:06;;;;;;;6.13;4.80;;;14.90;72.90;;;;;;5065264;28;20040;-67
2022/03/12 12:01:35;;;;;;;6.03;4.65;;;14.80;71.80;;;;;;5065493;28;20390;-67
2022/03/12 12:04:02;;;;;;;8.35;4.70;;;14.80;71.90;;;;;;5066924;28;20039;-67
2022/03/12 12:06:28;;;;;;;8.55;5.38;;;14.90;72.00;;;;;;5066251;28;20051;-67
2022/03/12 12:08:54;;;;;;;4.53;3.97;;;14.90;72.10;;;;;;5068189;28;20119;-67
2022/03/12 12:11:20;;;;;;;6.57;4.20;;;14.80;70.90;;;;;;5066142;28;20054;-67
2022/03/12 12:13:45;;;;;;;6.95;4.15;;;14.70;70.20;;;;;;5068956;28;20067;-67
2022/03/12 12:16:11;;;;;;;5.43;3.80;;;14.60;71.40;;;;;;5067599;28;20549;-67
2022/03/12 12:18:37;;;;;;;7.65;3.85;;;14.60;73.00;;;;;;5066635;28;20045;-67
2022/03/12 12:21:04;;;;;;;4.45;3.33;;;14.70;71.30;;;;;;5083208;28;20078;-67
2022/03/12 12:23:29;;;;;;;9.48;4.63;;;14.70;70.40;;;;;;5068399;28;20063;-67
2022/03/12 12:26:13;;;;;;;4.55;3.70;;;14.80;70.60;;;;;;5069854;28;20563;-67
2022/03/12 12:28:50;;;;;;;5.97;4.40;;;14.90;72.60;;;;;;5064940;28;20040;-67
2022/03/12 12:31:24;;;;;;;5.70;4.25;;;14.90;71.20;;;;;;5065787;28;20059;-67
2022/03/12 12:33:50;;;;;;;6.18;4.45;;;14.90;71.50;;;;;;5066045;28;20478;-67
2022/03/12 12:36:18;;;;;;;9.50;4.78;;;14.90;72.50;;;;;;5066407;28;20051;-67
2022/03/12 12:39:09;;;;;;;8.90;4.80;;;15.00;72.20;;;;;;5093662;28;20056;-67
2022/03/12 12:41:52;;;;;;;7.38;4.55;;;15.00;72.90;;;;;;5062384;28;20047;-67
2022/03/12 12:44:33;;;;;;;5.70;4.07;;;15.00;70.60;;;;;;5064892;28;20627;-67
2022/03/12 12:47:02;;;;;;;3.85;2.42;;;14.90;68.70;;;;;;5061503;28;20134;-67
2022/03/12 12:49:52;;;;;;;5.53;3.03;;;14.80;68.10;;;;;;5066595;28;20075;-67
2022/03/12 12:52:18;;;;;;;5.90;4.13;;;14.70;69.20;;;;;;5060668;28;20506;-67
2022/03/12 12:54:49;;;;;;;5.05;3.83;;;14.70;69.20;;;;;;5066394;28;20178;-67